sensor_id;sensor_type;location;lat;lon;timestamp;pressure;altitude;pressure_sealevel;temperature;humidity
74474;BME280;62922;-6.168;106.796;2022-10-16T00:01:21;101093.41;;;29.91;64.63
74474;BME280;62922;-6.168;106.796;2022-10-16T00:03:47;101092.59;;;29.90;64.61
74474;BME280;62922;-6.168;106.796;2022-10-16T00:06:14;101091.75;;;29.90;64.56
74474;BME280;62922;-6.168;106.796;2022-10-16T00:08:40;101101.22;;;29.94;64.69
74474;BME280;62922;-6.168;106.796;2022-10-16T00:11:08;101103.41;;;29.97;64.86
74474;BME280;62922;-6.168;106.796;2022-10-16T00:13:34;101107.06;;;29.97;64.80
74474;BME280;62922;-6.168;106.796;2022-10-16T00:16:00;101097.78;;;29.97;64.59
74474;BME280;62922;-6.168;106.796;2022-10-16T00:18:27;101105.69;;;29.95;64.60
74474;BME280;62922;-6.168;106.796;2022-10-16T00:20:53;101111.66;;;29.93;64.18
74474;BME280;62922;-6.168;106.796;2022-10-16T00:23:19;101111.66;;;29.93;64.66
74474;BME280;62922;-6.168;106.796;2022-10-16T00:25:54;101121.78;;;29.94;64.62
74474;BME280;62922;-6.168;106.796;2022-10-16T00:28:20;101118.97;;;29.94;64.69
74474;BME280;62922;-6.168;106.796;2022-10-16T00:30:46;101116.16;;;29.94;64.55
74474;BME280;62922;-6.168;106.796;2022-10-16T00:33:11;101127.41;;;29.94;64.32
74474;BME280;62922;-6.168;106.796;2022-10-16T00:35:40;101125.41;;;29.95;64.36
74474;BME280;62922;-6.168;106.796;2022-10-16T00:38:06;101126.22;;;29.95;64.31
74474;BME280;62922;-6.168;106.796;2022-10-16T00:40:31;101130.22;;;29.94;64.15
74474;BME280;62922;-6.168;106.796;2022-10-16T00:42:57;101126.88;;;29.92;63.98
74474;BME280;62922;-6.168;106.796;2022-10-16T00:45:23;101128.53;;;29.93;64.11
74474;BME280;62922;-6.168;106.796;2022-10-16T00:47:49;101131.53;;;29.97;64.00
74474;BME280;62922;-6.168;106.796;2022-10-16T00:50:22;101135.50;;;29.96;63.73
74474;BME280;62922;-6.168;106.796;2022-10-16T00:52:49;101134.88;;;29.99;63.98
74474;BME280;62922;-6.168;106.796;2022-10-16T00:55:15;101142.97;;;30.00;63.76
74474;BME280;62922;-6.168;106.796;2022-10-16T00:57:41;101144.66;;;30.01;63.50
74474;BME280;62922;-6.168;106.796;2022-10-16T01:00:08;101138.72;;;30.03;63.61
74474;BME280;62922;-6.168;106.796;2022-10-16T01:02:35;101145.69;;;30.05;63.69
74474;BME280;62922;-6.168;106.796;2022-10-16T01:05:00;101143.50;;;30.02;63.47
74474;BME280;62922;-6.168;106.796;2022-10-16T01:17:18;101142.09;;;30.13;63.45
74474;BME280;62922;-6.168;106.796;2022-10-16T01:22:14;101145.94;;;30.17;63.49
74474;BME280;62922;-6.168;106.796;2022-10-16T01:24:44;101147.91;;;30.17;63.79
74474;BME280;62922;-6.168;106.796;2022-10-16T01:27:14;101154.06;;;30.19;63.67
74474;BME280;62922;-6.168;106.796;2022-10-16T01:37:39;101156.97;;;30.27;63.46
74474;BME280;62922;-6.168;106.796;2022-10-16T01:40:08;101162.81;;;30.31;63.61
74474;BME280;62922;-6.168;106.796;2022-10-16T01:42:37;101162.47;;;30.32;63.10
74474;BME280;62922;-6.168;106.796;2022-10-16T01:45:04;101168.81;;;30.38;63.27
74474;BME280;62922;-6.168;106.796;2022-10-16T01:47:33;101162.19;;;30.42;63.55
74474;BME280;62922;-6.168;106.796;2022-10-16T01:50:01;101164.41;;;30.45;63.09
74474;BME280;62922;-6.168;106.796;2022-10-16T01:52:30;101161.59;;;30.45;63.08
74474;BME280;62922;-6.168;106.796;2022-10-16T01:54:57;101161.25;;;30.47;63.03
74474;BME280;62922;-6.168;106.796;2022-10-16T01:57:24;101157.97;;;30.53;63.50
74474;BME280;62922;-6.168;106.796;2022-10-16T01:59:53;101152.69;;;30.60;62.76
74474;BME280;62922;-6.168;106.796;2022-10-16T02:02:20;101147.56;;;30.62;62.91
74474;BME280;62922;-6.168;106.796;2022-10-16T02:04:50;101144.13;;;30.65;62.68
74474;BME280;62922;-6.168;106.796;2022-10-16T02:07:18;101147.13;;;30.69;62.35
74474;BME280;62922;-6.168;106.796;2022-10-16T02:09:46;101138.69;;;30.69;62.36
74474;BME280;62922;-6.168;106.796;2022-10-16T02:14:39;101138.19;;;30.76;61.70
74474;BME280;62922;-6.168;106.796;2022-10-16T02:17:10;101139.09;;;30.85;61.30
74474;BME280;62922;-6.168;106.796;2022-10-16T02:19:37;101143.28;;;30.87;61.21
74474;BME280;62922;-6.168;106.796;2022-10-16T02:22:03;101148.75;;;30.92;61.59
74474;BME280;62922;-6.168;106.796;2022-10-16T02:27:04;101142.97;;;30.97;62.41
74474;BME280;62922;-6.168;106.796;2022-10-16T02:29:33;101142.28;;;30.92;62.81
74474;BME280;62922;-6.168;106.796;2022-10-16T02:32:03;101143.97;;;30.93;62.10
74474;BME280;62922;-6.168;106.796;2022-10-16T02:34:30;101142.16;;;30.97;62.35
74474;BME280;62922;-6.168;106.796;2022-10-16T02:36:57;101142.34;;;31.00;61.60
74474;BME280;62922;-6.168;106.796;2022-10-16T02:39:24;101142.50;;;31.04;61.02
74474;BME280;62922;-6.168;106.796;2022-10-16T02:41:50;101138.69;;;31.08;61.21
74474;BME280;62922;-6.168;106.796;2022-10-16T02:44:16;101143.69;;;31.11;60.89
74474;BME280;62922;-6.168;106.796;2022-10-16T02:46:44;101142.19;;;31.14;61.09
74474;BME280;62922;-6.168;106.796;2022-10-16T02:49:10;101139.22;;;31.19;60.58
74474;BME280;62922;-6.168;106.796;2022-10-16T02:51:36;101138.91;;;31.20;60.29
74474;BME280;62922;-6.168;106.796;2022-10-16T02:54:02;101132.44;;;31.20;60.59
74474;BME280;62922;-6.168;106.796;2022-10-16T02:56:28;101129.28;;;31.21;60.46
74474;BME280;62922;-6.168;106.796;2022-10-16T02:58:55;101131.28;;;31.21;60.01
74474;BME280;62922;-6.168;106.796;2022-10-16T03:01:21;101132.94;;;31.22;60.22
74474;BME280;62922;-6.168;106.796;2022-10-16T03:03:47;101137.41;;;31.23;60.69
74474;BME280;62922;-6.168;106.796;2022-10-16T03:06:13;101136.28;;;31.24;60.75
74474;BME280;62922;-6.168;106.796;2022-10-16T03:08:39;101134.59;;;31.23;61.78
74474;BME280;62922;-6.168;106.796;2022-10-16T03:11:04;101133.59;;;31.19;61.73
74474;BME280;62922;-6.168;106.796;2022-10-16T03:13:30;101132.28;;;31.16;62.12
74474;BME280;62922;-6.168;106.796;2022-10-16T03:15:56;101122.13;;;31.15;62.75
74474;BME280;62922;-6.168;106.796;2022-10-16T03:18:22;101128.78;;;31.19;63.05
74474;BME280;62922;-6.168;106.796;2022-10-16T03:20:48;101122.00;;;31.20;63.24
74474;BME280;62922;-6.168;106.796;2022-10-16T03:23:14;101121.50;;;31.18;63.55
74474;BME280;62922;-6.168;106.796;2022-10-16T03:25:39;101122.63;;;31.17;63.74
74474;BME280;62922;-6.168;106.796;2022-10-16T03:28:08;101127.78;;;31.15;63.28
74474;BME280;62922;-6.168;106.796;2022-10-16T03:30:34;101124.94;;;31.07;63.52
74474;BME280;62922;-6.168;106.796;2022-10-16T03:33:00;101123.91;;;31.03;63.41
74474;BME280;62922;-6.168;106.796;2022-10-16T03:35:26;101117.25;;;30.99;63.59
74474;BME280;62922;-6.168;106.796;2022-10-16T03:37:51;101121.25;;;30.98;64.36
74474;BME280;62922;-6.168;106.796;2022-10-16T03:40:18;101121.75;;;31.00;64.82
74474;BME280;62922;-6.168;106.796;2022-10-16T03:42:44;101125.41;;;31.00;63.77
74474;BME280;62922;-6.168;106.796;2022-10-16T03:45:10;101111.84;;;31.02;64.22
74474;BME280;62922;-6.168;106.796;2022-10-16T03:47:36;101107.66;;;31.00;64.56
74474;BME280;62922;-6.168;106.796;2022-10-16T03:50:03;101108.19;;;31.02;65.23
74474;BME280;62922;-6.168;106.796;2022-10-16T03:52:29;101105.03;;;31.12;64.42
74474;BME280;62922;-6.168;106.796;2022-10-16T03:54:55;101091.63;;;31.17;64.59
74474;BME280;62922;-6.168;106.796;2022-10-16T03:57:21;101091.97;;;31.24;64.81
74474;BME280;62922;-6.168;106.796;2022-10-16T03:59:47;101086.03;;;31.26;64.77
74474;BME280;62922;-6.168;106.796;2022-10-16T04:02:15;101079.38;;;31.30;64.83
74474;BME280;62922;-6.168;106.796;2022-10-16T04:04:41;101071.94;;;31.26;64.82
74474;BME280;62922;-6.168;106.796;2022-10-16T04:07:07;101071.44;;;31.24;64.83
74474;BME280;62922;-6.168;106.796;2022-10-16T04:09:33;101073.75;;;31.22;64.56
74474;BME280;62922;-6.168;106.796;2022-10-16T04:11:59;101064.78;;;31.20;65.06
74474;BME280;62922;-6.168;106.796;2022-10-16T04:14:25;101066.94;;;31.23;65.14
74474;BME280;62922;-6.168;106.796;2022-10-16T04:16:50;101064.28;;;31.26;64.99
74474;BME280;62922;-6.168;106.796;2022-10-16T04:19:16;101051.00;;;31.27;64.50
74474;BME280;62922;-6.168;106.796;2022-10-16T04:21:45;101043.56;;;31.31;64.64
74474;BME280;62922;-6.168;106.796;2022-10-16T04:24:11;101039.47;;;31.37;63.81
74474;BME280;62922;-6.168;106.796;2022-10-16T04:26:37;101034.16;;;31.44;63.57
74474;BME280;62922;-6.168;106.796;2022-10-16T04:29:03;101032.00;;;31.49;63.38
74474;BME280;62922;-6.168;106.796;2022-10-16T04:31:31;101023.34;;;31.54;63.23
74474;BME280;62922;-6.168;106.796;2022-10-16T04:33:57;101020.34;;;31.59;63.19
74474;BME280;62922;-6.168;106.796;2022-10-16T04:36:23;101014.38;;;31.61;63.67
74474;BME280;62922;-6.168;106.796;2022-10-16T04:38:49;101020.22;;;31.65;64.42
74474;BME280;62922;-6.168;106.796;2022-10-16T04:41:14;101008.44;;;31.63;64.80
74474;BME280;62922;-6.168;106.796;2022-10-16T04:43:40;101011.75;;;31.65;64.13
74474;BME280;62922;-6.168;106.796;2022-10-16T04:46:08;101010.91;;;31.64;64.39
74474;BME280;62922;-6.168;106.796;2022-10-16T04:48:35;101011.91;;;31.59;65.10
74474;BME280;62922;-6.168;106.796;2022-10-16T04:51:01;101001.44;;;31.60;65.20
74474;BME280;62922;-6.168;106.796;2022-10-16T04:53:27;100996.47;;;31.48;65.88
74474;BME280;62922;-6.168;106.796;2022-10-16T04:55:53;101006.78;;;31.53;65.20
74474;BME280;62922;-6.168;106.796;2022-10-16T04:58:19;101005.78;;;31.49;65.13
74474;BME280;62922;-6.168;106.796;2022-10-16T05:00:47;101002.94;;;31.49;65.80
74474;BME280;62922;-6.168;106.796;2022-10-16T05:03:13;101004.28;;;31.43;65.86
74474;BME280;62922;-6.168;106.796;2022-10-16T05:08:14;100995.78;;;31.34;66.03
74474;BME280;62922;-6.168;106.796;2022-10-16T05:10:41;100989.84;;;31.36;66.55
74474;BME280;62922;-6.168;106.796;2022-10-16T05:13:07;100993.16;;;31.38;66.63
74474;BME280;62922;-6.168;106.796;2022-10-16T05:15:33;100988.69;;;31.37;66.71
74474;BME280;62922;-6.168;106.796;2022-10-16T05:17:59;100976.06;;;31.34;66.84
74474;BME280;62922;-6.168;106.796;2022-10-16T05:20:25;100966.44;;;31.35;66.80
74474;BME280;62922;-6.168;106.796;2022-10-16T05:22:51;100977.91;;;31.39;66.33
74474;BME280;62922;-6.168;106.796;2022-10-16T05:25:17;100966.31;;;31.40;66.09
74474;BME280;62922;-6.168;106.796;2022-10-16T05:27:46;100966.31;;;31.40;66.09
74474;BME280;62922;-6.168;106.796;2022-10-16T05:30:12;100953.34;;;31.39;66.71
74474;BME280;62922;-6.168;106.796;2022-10-16T05:32:40;100946.56;;;31.40;66.23
74474;BME280;62922;-6.168;106.796;2022-10-16T05:35:06;100946.56;;;31.40;65.82
74474;BME280;62922;-6.168;106.796;2022-10-16T05:37:32;100941.72;;;31.41;66.15
74474;BME280;62922;-6.168;106.796;2022-10-16T05:39:58;100943.41;;;31.42;65.99
74474;BME280;62922;-6.168;106.796;2022-10-16T05:42:24;100943.25;;;31.38;66.17
74474;BME280;62922;-6.168;106.796;2022-10-16T05:44:50;100931.47;;;31.36;66.51
74474;BME280;62922;-6.168;106.796;2022-10-16T05:47:16;100933.75;;;31.34;66.26
74474;BME280;62922;-6.168;106.796;2022-10-16T05:49:41;100931.47;;;31.36;65.91
74474;BME280;62922;-6.168;106.796;2022-10-16T05:52:07;100933.09;;;31.37;66.29
74474;BME280;62922;-6.168;106.796;2022-10-16T05:54:33;100921.03;;;31.37;66.19
74474;BME280;62922;-6.168;106.796;2022-10-16T05:56:59;100913.88;;;31.39;66.15
74474;BME280;62922;-6.168;106.796;2022-10-16T05:59:25;100904.75;;;31.42;65.83
74474;BME280;62922;-6.168;106.796;2022-10-16T06:01:51;100899.75;;;31.48;66.16
74474;BME280;62922;-6.168;106.796;2022-10-16T06:04:19;100888.63;;;31.51;65.21
74474;BME280;62922;-6.168;106.796;2022-10-16T06:06:45;100891.13;;;31.53;65.06
74474;BME280;62922;-6.168;106.796;2022-10-16T06:09:11;100892.75;;;31.54;64.86
74474;BME280;62922;-6.168;106.796;2022-10-16T06:11:38;100894.59;;;31.50;65.16
74474;BME280;62922;-6.168;106.796;2022-10-16T06:14:04;100887.97;;;31.54;65.19
74474;BME280;62922;-6.168;106.796;2022-10-16T06:16:32;100873.50;;;31.56;65.45
74474;BME280;62922;-6.168;106.796;2022-10-16T06:18:59;100868.03;;;31.59;64.55
74474;BME280;62922;-6.168;106.796;2022-10-16T06:21:26;100869.50;;;31.66;64.77
74474;BME280;62922;-6.168;106.796;2022-10-16T06:23:53;100876.13;;;31.70;64.70
74474;BME280;62922;-6.168;106.796;2022-10-16T06:26:20;100877.94;;;31.74;64.17
74474;BME280;62922;-6.168;106.796;2022-10-16T06:28:46;100866.16;;;31.81;64.82
74474;BME280;62922;-6.168;106.796;2022-10-16T06:31:12;100870.75;;;31.85;65.28
74474;BME280;62922;-6.168;106.796;2022-10-16T06:33:39;100859.63;;;31.89;65.08
74474;BME280;62922;-6.168;106.796;2022-10-16T06:36:08;100855.34;;;31.91;64.52
74474;BME280;62922;-6.168;106.796;2022-10-16T06:38:34;100834.56;;;31.87;64.39
74474;BME280;62922;-6.168;106.796;2022-10-16T06:41:00;100834.91;;;31.86;64.29
74474;BME280;62922;-6.168;106.796;2022-10-16T06:43:28;100825.47;;;31.90;64.46
74474;BME280;62922;-6.168;106.796;2022-10-16T06:45:59;100832.09;;;31.86;64.33
74474;BME280;62922;-6.168;106.796;2022-10-16T06:48:26;100815.63;;;31.88;64.29
74474;BME280;62922;-6.168;106.796;2022-10-16T06:53:22;100813.66;;;31.88;63.80
74474;BME280;62922;-6.168;106.796;2022-10-16T06:55:49;100827.59;;;31.93;63.69
74474;BME280;62922;-6.168;106.796;2022-10-16T06:58:14;100816.94;;;31.99;64.30
74474;BME280;62922;-6.168;106.796;2022-10-16T07:00:40;100822.53;;;32.07;63.85
74474;BME280;62922;-6.168;106.796;2022-10-16T07:03:07;100832.97;;;32.15;63.78
74474;BME280;62922;-6.168;106.796;2022-10-16T07:05:37;100823.13;;;32.21;64.15
74474;BME280;62922;-6.168;106.796;2022-10-16T07:08:03;100801.47;;;32.25;64.01
74474;BME280;62922;-6.168;106.796;2022-10-16T07:10:30;100804.13;;;32.30;63.79
74474;BME280;62922;-6.168;106.796;2022-10-16T07:12:56;100812.25;;;32.32;63.70
74474;BME280;62922;-6.168;106.796;2022-10-16T07:15:22;100814.38;;;32.35;63.06
74474;BME280;62922;-6.168;106.796;2022-10-16T07:17:51;100804.13;;;32.30;62.70
74474;BME280;62922;-6.168;106.796;2022-10-16T07:20:17;100805.78;;;32.31;63.25
74474;BME280;62922;-6.168;106.796;2022-10-16T07:22:43;100803.09;;;32.35;63.13
74474;BME280;62922;-6.168;106.796;2022-10-16T07:25:09;100805.56;;;32.36;63.06
74474;BME280;62922;-6.168;106.796;2022-10-16T07:27:35;100799.25;;;32.39;63.14
74474;BME280;62922;-6.168;106.796;2022-10-16T07:30:01;100811.03;;;32.41;62.85
74474;BME280;62922;-6.168;106.796;2022-10-16T07:32:26;100807.88;;;32.43;63.20
74474;BME280;62922;-6.168;106.796;2022-10-16T07:34:52;100794.09;;;32.41;63.02
74474;BME280;62922;-6.168;106.796;2022-10-16T07:37:19;100797.06;;;32.45;63.07
74474;BME280;62922;-6.168;106.796;2022-10-16T07:39:45;100812.50;;;32.47;62.94
74474;BME280;62922;-6.168;106.796;2022-10-16T07:42:10;100806.19;;;32.50;62.55
74474;BME280;62922;-6.168;106.796;2022-10-16T07:44:36;100792.50;;;32.52;62.07
74474;BME280;62922;-6.168;106.796;2022-10-16T07:47:02;100804.63;;;32.53;62.39
74474;BME280;62922;-6.168;106.796;2022-10-16T07:49:30;100816.28;;;32.51;61.85
74474;BME280;62922;-6.168;106.796;2022-10-16T07:51:56;100810.28;;;32.53;61.56
74474;BME280;62922;-6.168;106.796;2022-10-16T07:54:22;100808.31;;;32.53;62.10
74474;BME280;62922;-6.168;106.796;2022-10-16T07:56:48;100808.31;;;32.53;61.50
74474;BME280;62922;-6.168;106.796;2022-10-16T07:59:17;100795.31;;;32.52;61.70
74474;BME280;62922;-6.168;106.796;2022-10-16T08:01:42;100786.53;;;32.54;61.84
74474;BME280;62922;-6.168;106.796;2022-10-16T08:04:09;100775.09;;;32.50;62.03
74474;BME280;62922;-6.168;106.796;2022-10-16T08:06:36;100781.91;;;32.49;61.93
74474;BME280;62922;-6.168;106.796;2022-10-16T08:09:02;100779.22;;;32.53;61.30
74474;BME280;62922;-6.168;106.796;2022-10-16T08:11:28;100773.22;;;32.54;61.78
74474;BME280;62922;-6.168;106.796;2022-10-16T08:13:54;100765.56;;;32.55;61.37
74474;BME280;62922;-6.168;106.796;2022-10-16T08:16:20;100767.56;;;32.54;61.30
74474;BME280;62922;-6.168;106.796;2022-10-16T08:18:46;100779.56;;;32.51;61.26
74474;BME280;62922;-6.168;106.796;2022-10-16T08:21:13;100770.94;;;32.48;61.47
74474;BME280;62922;-6.168;106.796;2022-10-16T08:23:42;100773.44;;;32.49;61.58
74474;BME280;62922;-6.168;106.796;2022-10-16T08:26:09;100764.69;;;32.42;61.67
74474;BME280;62922;-6.168;106.796;2022-10-16T08:28:35;100763.84;;;32.42;61.50
74474;BME280;62922;-6.168;106.796;2022-10-16T08:33:32;100771.50;;;32.41;61.18
74474;BME280;62922;-6.168;106.796;2022-10-16T08:36:00;100774.78;;;32.43;61.49
74474;BME280;62922;-6.168;106.796;2022-10-16T08:38:29;100765.53;;;32.43;61.09
74474;BME280;62922;-6.168;106.796;2022-10-16T08:41:02;100763.50;;;32.43;61.25
74474;BME280;62922;-6.168;106.796;2022-10-16T08:43:39;100769.63;;;32.45;60.77
74474;BME280;62922;-6.168;106.796;2022-10-16T08:46:12;100774.78;;;32.43;61.09
74474;BME280;62922;-6.168;106.796;2022-10-16T08:49:01;100771.16;;;32.43;61.17
74474;BME280;62922;-6.168;106.796;2022-10-16T08:51:27;100772.16;;;32.38;60.78
74474;BME280;62922;-6.168;106.796;2022-10-16T08:56:22;100788.25;;;32.46;60.77
74474;BME280;62922;-6.168;106.796;2022-10-16T08:58:48;100790.72;;;32.48;60.91
74474;BME280;62922;-6.168;106.796;2022-10-16T09:01:15;100791.75;;;32.43;60.52
74474;BME280;62922;-6.168;106.796;2022-10-16T09:03:45;100785.28;;;32.43;60.70
74474;BME280;62922;-6.168;106.796;2022-10-16T09:21:18;100796.88;;;32.50;61.80
74474;BME280;62922;-6.168;106.796;2022-10-16T09:23:45;100791.56;;;32.48;61.87
74474;BME280;62922;-6.168;106.796;2022-10-16T09:26:12;100795.94;;;32.37;61.20
74474;BME280;62922;-6.168;106.796;2022-10-16T09:28:38;100803.91;;;32.35;61.51
74474;BME280;62922;-6.168;106.796;2022-10-16T09:31:07;100802.94;;;32.31;61.76
74474;BME280;62922;-6.168;106.796;2022-10-16T09:33:36;100795.44;;;32.35;61.24
74474;BME280;62922;-6.168;106.796;2022-10-16T09:36:03;100796.75;;;32.38;60.92
74474;BME280;62922;-6.168;106.796;2022-10-16T09:38:33;100805.56;;;32.36;61.36
74474;BME280;62922;-6.168;106.796;2022-10-16T09:41:10;100806.59;;;32.32;61.21
74474;BME280;62922;-6.168;106.796;2022-10-16T09:43:40;100805.41;;;32.33;61.64
74474;BME280;62922;-6.168;106.796;2022-10-16T09:46:08;100811.28;;;32.28;61.65
74474;BME280;62922;-6.168;106.796;2022-10-16T09:51:01;100826.09;;;32.25;61.81
74474;BME280;62922;-6.168;106.796;2022-10-16T09:53:39;100826.41;;;32.23;61.47
74474;BME280;62922;-6.168;106.796;2022-10-16T09:56:09;100825.78;;;32.18;61.50
74474;BME280;62922;-6.168;106.796;2022-10-16T09:58:38;100823.78;;;32.18;61.43
74474;BME280;62922;-6.168;106.796;2022-10-16T10:01:04;100828.31;;;32.11;61.89
74474;BME280;62922;-6.168;106.796;2022-10-16T10:03:33;100830.00;;;32.12;61.30
74474;BME280;62922;-6.168;106.796;2022-10-16T10:06:03;100811.38;;;32.11;61.43
74474;BME280;62922;-6.168;106.796;2022-10-16T10:08:29;100817.38;;;32.09;61.47
74474;BME280;62922;-6.168;106.796;2022-10-16T10:10:55;100819.22;;;32.05;61.76
74474;BME280;62922;-6.168;106.796;2022-10-16T10:13:22;100830.50;;;32.05;62.00
74474;BME280;62922;-6.168;106.796;2022-10-16T10:15:50;100827.81;;;32.09;61.72
74474;BME280;62922;-6.168;106.796;2022-10-16T10:18:19;100817.38;;;32.09;61.91
74474;BME280;62922;-6.168;106.796;2022-10-16T10:20:56;100825.16;;;32.12;61.79
74474;BME280;62922;-6.168;106.796;2022-10-16T10:23:23;100834.09;;;32.14;61.54
74474;BME280;62922;-6.168;106.796;2022-10-16T10:28:23;100857.19;;;32.16;61.71
74474;BME280;62922;-6.168;106.796;2022-10-16T10:31:14;100865.00;;;32.19;61.62
74474;BME280;62922;-6.168;106.796;2022-10-16T10:46:14;100896.38;;;32.18;61.05
74474;BME280;62922;-6.168;106.796;2022-10-16T10:51:13;100904.84;;;32.18;60.94
74474;BME280;62922;-6.168;106.796;2022-10-16T11:01:13;100926.00;;;32.12;61.21
74474;BME280;62922;-6.168;106.796;2022-10-16T11:06:11;100939.22;;;32.20;61.09
74474;BME280;62922;-6.168;106.796;2022-10-16T11:08:50;100931.44;;;32.17;61.12
74474;BME280;62922;-6.168;106.796;2022-10-16T11:13:53;100928.03;;;32.03;61.31
74474;BME280;62922;-6.168;106.796;2022-10-16T11:18:52;100941.63;;;32.01;61.51
74474;BME280;62922;-6.168;106.796;2022-10-16T11:21:21;100941.28;;;32.02;61.40
74474;BME280;62922;-6.168;106.796;2022-10-16T11:26:16;100952.06;;;32.09;61.18
74474;BME280;62922;-6.168;106.796;2022-10-16T11:28:45;100958.19;;;32.11;61.36
74474;BME280;62922;-6.168;106.796;2022-10-16T11:31:16;100963.84;;;32.11;61.57
74474;BME280;62922;-6.168;106.796;2022-10-16T11:33:45;100961.69;;;32.08;61.80
74474;BME280;62922;-6.168;106.796;2022-10-16T11:36:15;100967.00;;;32.09;61.22
74474;BME280;62922;-6.168;106.796;2022-10-16T11:38:45;100971.81;;;32.09;61.53
74474;BME280;62922;-6.168;106.796;2022-10-16T11:46:29;100978.97;;;32.06;61.61
74474;BME280;62922;-6.168;106.796;2022-10-16T11:49:00;100985.63;;;32.02;61.76
74474;BME280;62922;-6.168;106.796;2022-10-16T11:53:59;100989.28;;;32.02;61.27
74474;BME280;62922;-6.168;106.796;2022-10-16T11:56:27;101002.72;;;32.05;61.46
74474;BME280;62922;-6.168;106.796;2022-10-16T12:03:59;101015.53;;;32.03;61.82
74474;BME280;62922;-6.168;106.796;2022-10-16T12:08:53;101015.19;;;32.04;62.01
74474;BME280;62922;-6.168;106.796;2022-10-16T12:16:32;101029.97;;;32.01;61.73
74474;BME280;62922;-6.168;106.796;2022-10-16T12:19:19;101040.09;;;32.02;62.16
74474;BME280;62922;-6.168;106.796;2022-10-16T12:21:46;101049.41;;;32.03;62.17
74474;BME280;62922;-6.168;106.796;2022-10-16T12:26:58;101043.25;;;32.01;62.27
74474;BME280;62922;-6.168;106.796;2022-10-16T12:29:34;101049.25;;;31.99;62.07
74474;BME280;62922;-6.168;106.796;2022-10-16T12:32:01;101047.22;;;32.00;62.39
74474;BME280;62922;-6.168;106.796;2022-10-16T12:37:07;101046.09;;;32.01;62.38
74474;BME280;62922;-6.168;106.796;2022-10-16T12:39:34;101048.91;;;32.01;62.38
74474;BME280;62922;-6.168;106.796;2022-10-16T12:42:04;101057.72;;;31.99;62.50
74474;BME280;62922;-6.168;106.796;2022-10-16T12:44:33;101060.19;;;32.01;62.94
74474;BME280;62922;-6.168;106.796;2022-10-16T12:46:59;101055.69;;;32.00;62.90
74474;BME280;62922;-6.168;106.796;2022-10-16T12:51:54;101059.03;;;31.93;62.40
74474;BME280;62922;-6.168;106.796;2022-10-16T13:21:56;101098.22;;;31.86;61.90
74474;BME280;62922;-6.168;106.796;2022-10-16T13:26:53;101115.94;;;31.87;62.39
74474;BME280;62922;-6.168;106.796;2022-10-16T13:29:21;101119.63;;;31.87;62.31
74474;BME280;62922;-6.168;106.796;2022-10-16T13:31:50;101117.97;;;31.86;62.18
74474;BME280;62922;-6.168;106.796;2022-10-16T13:34:17;101124.75;;;31.85;61.99
74474;BME280;62922;-6.168;106.796;2022-10-16T13:39:11;101131.25;;;31.86;61.83
74474;BME280;62922;-6.168;106.796;2022-10-16T13:41:38;101134.06;;;31.86;62.19
74474;BME280;62922;-6.168;106.796;2022-10-16T13:44:05;101143.38;;;31.86;62.25
74474;BME280;62922;-6.168;106.796;2022-10-16T13:46:34;101143.72;;;31.85;61.83
74474;BME280;62922;-6.168;106.796;2022-10-16T13:49:12;101147.34;;;31.85;61.79
74474;BME280;62922;-6.168;106.796;2022-10-16T13:51:41;101142.72;;;31.89;62.09
74474;BME280;62922;-6.168;106.796;2022-10-16T13:54:18;101144.50;;;31.85;61.98
74474;BME280;62922;-6.168;106.796;2022-10-16T13:56:44;101146.53;;;31.85;61.86
74474;BME280;62922;-6.168;106.796;2022-10-16T14:01:56;101145.53;;;31.81;62.14
74474;BME280;62922;-6.168;106.796;2022-10-16T14:04:23;101148.00;;;31.82;62.22
74474;BME280;62922;-6.168;106.796;2022-10-16T14:06:49;101136.56;;;31.79;61.95
74474;BME280;62922;-6.168;106.796;2022-10-16T14:11:53;101135.38;;;31.80;62.17
74474;BME280;62922;-6.168;106.796;2022-10-16T14:14:20;101139.88;;;31.81;62.12
74474;BME280;62922;-6.168;106.796;2022-10-16T14:16:46;101140.69;;;31.81;61.81
74474;BME280;62922;-6.168;106.796;2022-10-16T14:19:15;101135.03;;;31.81;61.80
74474;BME280;62922;-6.168;106.796;2022-10-16T14:21:45;101134.22;;;31.81;61.78
74474;BME280;62922;-6.168;106.796;2022-10-16T14:24:22;101147.50;;;31.80;61.82
74474;BME280;62922;-6.168;106.796;2022-10-16T14:26:50;101151.16;;;31.81;61.90
74474;BME280;62922;-6.168;106.796;2022-10-16T14:29:19;101150.31;;;31.80;62.04
74474;BME280;62922;-6.168;106.796;2022-10-16T14:36:54;101157.78;;;31.76;62.66
74474;BME280;62922;-6.168;106.796;2022-10-16T14:39:21;101164.28;;;31.77;62.42
74474;BME280;62922;-6.168;106.796;2022-10-16T14:41:48;101177.22;;;31.78;62.59
74474;BME280;62922;-6.168;106.796;2022-10-16T14:44:14;101159.78;;;31.76;62.29
74474;BME280;62922;-6.168;106.796;2022-10-16T14:46:42;101173.06;;;31.75;62.62
74474;BME280;62922;-6.168;106.796;2022-10-16T14:51:36;101181.53;;;31.75;61.98
74474;BME280;62922;-6.168;106.796;2022-10-16T14:54:03;101185.50;;;31.74;62.48
74474;BME280;62922;-6.168;106.796;2022-10-16T14:56:30;101181.03;;;31.73;62.48
74474;BME280;62922;-6.168;106.796;2022-10-16T14:58:58;101187.81;;;31.72;62.34
74474;BME280;62922;-6.168;106.796;2022-10-16T15:01:24;101190.97;;;31.71;62.42
74474;BME280;62922;-6.168;106.796;2022-10-16T15:03:49;101194.97;;;31.70;62.17
74474;BME280;62922;-6.168;106.796;2022-10-16T15:06:17;101202.94;;;31.68;62.68
74474;BME280;62922;-6.168;106.796;2022-10-16T15:08:45;101192.50;;;31.68;62.59
74474;BME280;62922;-6.168;106.796;2022-10-16T15:11:15;101194.47;;;31.68;62.20
74474;BME280;62922;-6.168;106.796;2022-10-16T15:13:42;101203.28;;;31.66;62.27